Nearby METAR Reports

 

KAVP - Avoca/Wilkes B., Pennsylvania, USA
Distance from station: SW 13mi, 22km
Updated: Fri, 10-Jul-2020 08:12 EDT
Overcast
Overcast
 Wind from calm
Wind: Calm
Temperature: 75°F , 24°C
Dew Point: 68°F , 20°C
Humidity: 78%
Barometer: 29.99 inHg , 1015.6 hPa
Clouds: Overcast
Visibility: 10 miles , 16 km
Cloud details: Overcast 1500 ft
2020/07/10 12:12 KAVP 101212Z 00000KT 10SM OVC015 24/20 A2999 RMK AO2 T02440200
KMPO - Mt. Pocono, Pennsylvania, USA
Distance from station: SSE 26mi, 43km
Updated: Fri, 10-Jul-2020 08:18 EDT
Overcast
Overcast
 Wind from E
Wind: E 6 mph , 9 km/h
Temperature: 68°F , 20°C
Dew Point: 66°F , 19°C
Humidity: 94%
Barometer: 30.02 inHg , 1016.6 hPa
Clouds: Overcast
Visibility: 10 miles , 16 km
Cloud details: Overcast 400 ft
2020/07/10 12:18 KMPO 101218Z AUTO 08005KT 10SM OVC004 20/19 A3002 RMK AO2 T02000189
 
KMSV - Monticello, New York, USA
Distance from station: ENE 43mi, 69km
Updated: Fri, 10-Jul-2020 08:02 EDT
Mist, Overcast
Mist, Overcast
 Wind from E
Wind: E 3 mph , 6 km/h
Temperature: 70°F , 21°C
Dew Point: 68°F , 20°C
Humidity: 94%
Barometer: 30.04 inHg , 1017.3 hPa
Summary: Mist
Clouds: Overcast
Visibility: 6 miles , 10 km
Cloud details: Mostly cloudy 500 ft
Overcast 1000 ft
2020/07/10 12:02 KMSV 101202Z AUTO 10003KT 6SM BR BKN005 OVC010 21/20 A3004 RMK AO2 CIG 005V010
KFWN - Sussex, New Jersey, USA
Distance from station: ESE 52mi, 84km
Updated: Fri, 10-Jul-2020 07:53 EDT
Overcast
Overcast
 Wind from NNE
Wind: NNE 5 mph , 7 km/h
Temperature: 73°F , 23°C
Dew Point: 70°F , 21°C
Humidity: 89%
Barometer: 29.98 inHg , 1015.2 hPa
Clouds: Overcast
Visibility: 10 miles , 16 km
Cloud details: Overcast 3200 ft
2020/07/10 11:53 KFWN 101153Z AUTO 03004KT 10SM OVC032 23/21 A2998 RMK AO2 SLP148 T02330211 10233 20189 56005
 
K12N - Andover, New Jersey, USA
Distance from station: SE 54mi, 87km
Updated: Fri, 10-Jul-2020 07:54 EDT

 Wind from varies
Wind: varies 3 mph , 6 km/h
Temperature: 73°F , 23°C
Dew Point: 70°F , 21°C
Humidity: 89%
Barometer: 29.98 inHg , 1015.2 hPa
2020/07/10 11:54 K12N 101154Z AUTO VRB03KT 23/21 A2998 RMK AO1 SLP141 T02330211 10233 20206 58006 $
KBGM - Binghamton, New York, USA
Distance from station: NNW 55mi, 88km
Updated: Fri, 10-Jul-2020 07:53 EDT
Clear
Clear
 Wind from ESE
Wind: ESE 6 mph , 9 km/h
Temperature: 72°F , 22°C
Dew Point: 66°F , 19°C
Humidity: 83%
Barometer: 30.00 inHg , 1015.9 hPa
Clouds: Clear
Visibility: 10 miles , 16 km
2020/07/10 11:53 KBGM 101153Z AUTO 11005KT 10SM CLR 22/19 A3000 RMK AO2 SLP146 T02170194 10228 20200 55000
 
KABE - Allentown, Pennsylvania, USA
Distance from station: S 58mi, 94km
Updated: Fri, 10-Jul-2020 08:11 EDT
Mostly cloudy
Mostly cloudy
 Wind from NNE
Wind: NNE 7 mph , 11 km/h
Temperature: 73°F , 23°C
Dew Point: 70°F , 21°C
Humidity: 89%
Barometer: 29.94 inHg , 1013.9 hPa
Clouds: Mostly cloudy
Visibility: 10 miles , 16 km
Cloud details: Mostly cloudy 1600 ft
Mostly cloudy 3700 ft
2020/07/10 12:11 KABE 101211Z 03006KT 10SM BKN016 BKN037 23/21 A2994 RMK AO2 T02330206
KXLL - Allentown Queen, Pennsylvania, USA
Distance from station: S 64mi, 103km
Updated: Fri, 10-Jul-2020 08:15 EDT
Overcast
Overcast
 Wind from NNE
Wind: NNE 8 mph , 13 km/h
Temperature: 73°F , 23°C
Dew Point: 72°F , 22°C
Humidity: 94%
Barometer: 29.94 inHg , 1013.9 hPa
Clouds: Overcast
Visibility: 10 miles , 16 km
Cloud details: Overcast 1100 ft
2020/07/10 12:15 KXLL 101215Z AUTO 02007KT 10SM OVC011 23/22 A2994 RMK AO2
 
KMGJ - Montgomery, New York, USA
Distance from station: E 67mi, 108km
Updated: Fri, 10-Jul-2020 07:54 EDT
Overcast
Overcast
 Wind from N
Wind: N 7 mph , 11 km/h
Temperature: 72°F , 22°C
Dew Point: 70°F , 21°C
Humidity: 94%
Barometer: 29.99 inHg , 1015.6 hPa
Clouds: Overcast
Visibility: 10 miles , 16 km
Cloud details: Overcast 1900 ft
2020/07/10 11:54 KMGJ 101154Z AUTO 01006KT 10SM OVC019 22/21 A2999 RMK AO2 SLP154 60000 T02170211 10217 20178 58001
KIPT - Williamsport, Pennsylvania, USA
Distance from station: WSW 72mi, 116km
Updated: Fri, 10-Jul-2020 07:54 EDT
Overcast
Overcast
 Wind from E
Wind: E 5 mph , 7 km/h
Temperature: 73°F , 23°C
Dew Point: 68°F , 20°C
Humidity: 83%
Barometer: 29.94 inHg , 1013.9 hPa
Clouds: Overcast
Visibility: 10 miles , 16 km
Cloud details: Overcast 2000 ft
2020/07/10 11:54 KIPT 101154Z 10004KT 10SM OVC020 23/20 A2994 RMK AO2 SLP133 T02330200 10250 20222 51001
 
KUKT - Quakertown Arp, Pennsylvania, USA
Distance from station: S 74mi, 119km
Updated: Fri, 10-Jul-2020 08:15 EDT
Overcast
Overcast
 Wind from NE
Wind: NE 5 mph , 7 km/h
Temperature: 75°F , 24°C
Dew Point: 73°F , 23°C
Humidity: 94%
Barometer: 29.94 inHg , 1013.9 hPa
Clouds: Overcast
Visibility: 10 miles , 16 km
Cloud details: Mostly cloudy 900 ft
Overcast 1300 ft
2020/07/10 12:15 KUKT 101215Z AUTO 04004KT 10SM BKN009 OVC013 24/23 A2994 RMK A01
KSMQ - Somerville, New Jersey, USA
Distance from station: SE 76mi, 123km
Updated: Fri, 10-Jul-2020 07:53 EDT
Few Clouds
Few Clouds
 Wind from NE
Wind: NE 6 mph , 9 km/h
Temperature: 75°F , 24°C
Dew Point: 72°F , 22°C
Humidity: 89%
Barometer: 29.91 inHg , 1012.9 hPa
Clouds: Few Clouds
Visibility: 10 miles , 16 km
Cloud details: Few Clouds 1100 ft
2020/07/10 11:53 KSMQ 101153Z AUTO 05005KT 10SM FEW011 24/22 A2991 RMK AO2 SLP128 T02440222 10244 20200 58011
 
KSWF - Newburgh/Stewart, New York, USA
Distance from station: E 77mi, 123km
Updated: Fri, 10-Jul-2020 07:45 EDT
Overcast
Overcast
 Wind from E
Wind: E 7 mph , 11 km/h
Temperature: 73°F , 23°C
Dew Point: 72°F , 22°C
Humidity: 94%
Barometer: 30.00 inHg , 1015.9 hPa
Clouds: Overcast
Visibility: 10 miles , 16 km
Cloud details: Overcast 1800 ft
2020/07/10 11:45 KSWF 101145Z 10006KT 10SM OVC018 23/22 A3000
KMMU - Morristown Muni, New Jersey, USA
Distance from station: SE 77mi, 124km
Updated: Fri, 10-Jul-2020 06:35 EDT
NOT Current
Overcast
Overcast
 Wind from NNE
Wind: NNE 5 mph , 7 km/h
Temperature: 73°F , 23°C
Dew Point: 70°F , 21°C
Humidity: 89%
Barometer: 29.96 inHg , 1014.6 hPa
Clouds: Overcast
Visibility: 10 miles , 16 km
Cloud details: Mostly cloudy 3300 ft
Overcast 4300 ft
2020/07/10 10:35 KMMU 101035Z AUTO 03004KT 10SM BKN033 OVC043 23/21 A2996 RMK AO2
 
KCDW - Caldwell, New Jersey, USA
Distance from station: ESE 79mi, 127km
Updated: Fri, 10-Jul-2020 07:53 EDT
Overcast
Overcast
 Wind from varies
Wind: varies 6 mph , 9 km/h
Temperature: 77°F , 25°C
Dew Point: 73°F , 23°C
Humidity: 89%
Barometer: 29.95 inHg , 1014.2 hPa
Clouds: Overcast
Visibility: 10 miles , 16 km
Cloud details: Mostly cloudy 1100 ft
Overcast 1700 ft
2020/07/10 11:53 KCDW 101153Z AUTO VRB05KT 10SM BKN011 OVC017 25/23 A2995 RMK AO2 RAB28E51 SLP146 P0000 60000 T02500228 10250 20228 56011
KRDG - Reading, Pennsylvania, USA
Distance from station: SSW 80mi, 130km
Updated: Fri, 10-Jul-2020 07:54 EDT
Overcast
Overcast
 Wind from NE
Wind: NE 6 mph , 9 km/h
Temperature: 75°F , 24°C
Dew Point: 72°F , 22°C
Humidity: 89%
Barometer: 29.91 inHg , 1012.9 hPa
Clouds: Overcast
Visibility: 10 miles , 16 km
Cloud details: Partly cloudy 2300 ft
Overcast 3300 ft
2020/07/10 11:54 KRDG 101154Z 04005KT 10SM SCT023 OVC033 24/22 A2991 RMK AO2 SLP131 T02390217 10250 20228 56010 $
 
KITH - Ithaca/Tompkins, New York, USA
Distance from station: NW 81mi, 131km
Updated: Fri, 10-Jul-2020 07:56 EDT
Clear
Clear
 Wind from SE
Wind: SE 8 mph , 13 km/h
Temperature: 75°F , 24°C
Dew Point: 70°F , 21°C
Humidity: 83%
Barometer: 29.98 inHg , 1015.2 hPa
Clouds: Clear
Visibility: 10 miles , 16 km
2020/07/10 11:56 KITH 101156Z 14007KT 10SM CLR 24/21 A2998 RMK AO2 SLP141 T02440211 10250 20206 51002
KSEG - Selinsgrove, Pennsylvania, USA
Distance from station: SW 82mi, 132km
Updated: Fri, 10-Jul-2020 07:53 EDT

 Wind from calm
Wind: Calm
Temperature: 73°F , 23°C
Dew Point: 72°F , 22°C
Humidity: 94%
Barometer: 29.95 inHg , 1014.2 hPa
Visibility: 9 miles , 14 km
2020/07/10 11:53 KSEG 101153Z AUTO 00000KT 9SM 23/22 A2995 RMK AO2 SLP137 T02330217 10233 20206 $
 
KELM - Elmira, New York, USA
Distance from station: WNW 82mi, 133km
Updated: Fri, 10-Jul-2020 07:53 EDT
Clear
Clear
 Wind from calm
Wind: Calm
Temperature: 75°F , 24°C
Dew Point: 72°F , 22°C
Humidity: 89%
Barometer: 29.96 inHg , 1014.6 hPa
Clouds: Clear
Visibility: 9 miles , 14 km
2020/07/10 11:53 KELM 101153Z 00000KT 9SM CLR 24/22 A2996 RMK AO2 SLP135 T02390217 10239 20194 51001
KDYL - Doylestown, Pennsylvania, USA
Distance from station: SSE 83mi, 134km
Updated: Fri, 10-Jul-2020 07:54 EDT
Overcast
Overcast
 Wind from NE
Wind: NE 9 mph , 15 km/h
Temperature: 75°F , 24°C
Dew Point: 72°F , 22°C
Humidity: 89%
Barometer: 29.92 inHg , 1013.2 hPa
Clouds: Overcast
Visibility: 10 miles , 16 km
Cloud details: Overcast 600 ft
2020/07/10 11:54 KDYL 101154Z AUTO 04008KT 10SM OVC006 24/22 A2992 RMK AO2 CIG 005V009 SLP125 T02440217 10244 20233 58008